PWSweather.com
Personal Weather Stations
Station Observations
MAHIABEACH
Mahia Beach, Mahia Peninsula Hawkes Bay -NZ 4108

Mahia BeachMahia Peninsula Hawkes Bay -NZ 4108

Lat: -39.08872, Lon: 177.878209

Elevation: 72

Station Type: WS2083

http://wairoa.net/mahia/index.htm

Latest ConditionsUpdated 5:30:05 PM GMT+12:12 Saturday, Jul 2, 2016
Currently Today's Max Today's Min Today's Average
Temperature 45.3°F7.4°C 54.1°F12.3°C 44.1°F6.7°C 49.0°F9.4°C
Dew Point 32.3°F0.2°C 39.4°F4.1°C 28.2°F-2.1°C 33.4°F0.8°C
Winds 0.3 mph NE0.5 kmh NE 11.1 mph SSE17.9 kmh SSE - 5.2 mph 8.4 kmh
Wind Gusts 2.2 mph3.5 kmh 23.5 mph37.8 kmh - -
Humidity 60% 69% 42% 55%
Pressure 30.10 in1019.3 mb 30.16 in1021.3 mb 30.09 in1019.0 mb -
Precipitation - 0.01 in0.3 mm - -
Hour Temp Dew Point Humidity Winds Wind Gusts Pressure Precip Precip Rate Daily Precip Total
05:30 PM 45.3°F7.4°C 32.3°F0.2°C 60% 0.3 mph NE0.5 kmh NE 2.2 mph3.5 kmh 30.10 in1019.3 mb 0.00 in0.0 mm 0.00 in0.0 mm 0.01 in0.3 mm
05:15 PM 47.7°F8.7°C 32.3°F0.2°C 55% 0.4 mph ESE0.6 kmh ESE 3.8 mph6.1 kmh 30.10 in1019.3 mb 0.00 in0.0 mm 0.00 in0.0 mm 0.01 in0.3 mm
05:00 PM 50.2°F10.1°C 32.3°F0.2°C 50% 1.3 mph E2.1 kmh E 4.5 mph7.2 kmh 30.10 in1019.3 mb 0.00 in0.0 mm 0.00 in0.0 mm 0.01 in0.3 mm
04:45 PM 51.3°F10.7°C 32.8°F0.4°C 49% 2.6 mph E4.2 kmh E 4.5 mph7.2 kmh 30.10 in1019.3 mb 0.00 in0.0 mm 0.00 in0.0 mm 0.01 in0.3 mm
04:30 PM 51.8°F11.0°C 33.3°F0.7°C 49% 2.5 mph E4.0 kmh E 4.5 mph7.2 kmh 30.09 in1019.0 mb 0.00 in0.0 mm 0.00 in0.0 mm 0.01 in0.3 mm
04:15 PM 52.5°F11.4°C 33.9°F1.1°C 49% 3.5 mph SE5.6 kmh SE 6.0 mph9.7 kmh 30.09 in1019.0 mb 0.00 in0.0 mm 0.00 in0.0 mm 0.01 in0.3 mm
04:00 PM 52.9°F11.6°C 34.3°F1.3°C 49% 3.8 mph SE6.1 kmh SE 8.3 mph13.4 kmh 30.09 in1019.0 mb 0.00 in0.0 mm 0.00 in0.0 mm 0.01 in0.3 mm
03:45 PM 53.1°F11.7°C 34.9°F1.6°C 50% 4.2 mph SSE6.8 kmh SSE 7.6 mph12.2 kmh 30.09 in1019.0 mb 0.00 in0.0 mm 0.00 in0.0 mm 0.01 in0.3 mm
03:30 PM 53.8°F12.1°C 36.6°F2.6°C 52% 4.6 mph SE7.4 kmh SE 8.3 mph13.4 kmh 30.09 in1019.0 mb 0.00 in0.0 mm 0.00 in0.0 mm 0.01 in0.3 mm
03:15 PM 53.2°F11.8°C 35.6°F2.0°C 51% 5.4 mph SE8.7 kmh SE 9.8 mph15.8 kmh 30.09 in1019.0 mb 0.00 in0.0 mm 0.00 in0.0 mm 0.01 in0.3 mm
03:00 PM 53.8°F12.1°C 36.1°F2.3°C 51% 5.4 mph SE8.7 kmh SE 9.8 mph15.8 kmh 30.09 in1019.0 mb 0.00 in0.0 mm 0.00 in0.0 mm 0.01 in0.3 mm
02:45 PM 53.6°F12.0°C 36.4°F2.4°C 52% 5.7 mph SE9.2 kmh SE 9.8 mph15.8 kmh 30.09 in1019.0 mb 0.00 in0.0 mm 0.00 in0.0 mm 0.01 in0.3 mm
02:30 PM 54.1°F12.3°C 36.4°F2.4°C 51% 6.0 mph SE9.7 kmh SE 10.7 mph17.2 kmh 30.10 in1019.3 mb 0.00 in0.0 mm 0.00 in0.0 mm 0.01 in0.3 mm
02:15 PM 53.4°F11.9°C 36.2°F2.3°C 52% 7.5 mph SE12.1 kmh SE 13.0 mph20.9 kmh 30.09 in1019.0 mb 0.00 in0.0 mm 0.00 in0.0 mm 0.01 in0.3 mm
02:00 PM 52.7°F11.5°C 36.1°F2.3°C 53% 7.8 mph SE12.6 kmh SE 13.6 mph21.9 kmh 30.10 in1019.3 mb 0.00 in0.0 mm 0.00 in0.0 mm 0.01 in0.3 mm
01:45 PM 53.2°F11.8°C 37.5°F3.1°C 55% 7.3 mph SE11.7 kmh SE 11.4 mph18.3 kmh 30.10 in1019.3 mb 0.00 in0.0 mm 0.00 in0.0 mm 0.01 in0.3 mm
01:30 PM 53.4°F11.9°C 37.7°F3.2°C 55% 7.1 mph SE11.4 kmh SE 12.1 mph19.5 kmh 30.10 in1019.3 mb 0.00 in0.0 mm 0.00 in0.0 mm 0.01 in0.3 mm
01:15 PM 52.9°F11.6°C 36.7°F2.6°C 54% 7.2 mph SE11.6 kmh SE 12.1 mph19.5 kmh 30.10 in1019.3 mb 0.00 in0.0 mm 0.00 in0.0 mm 0.01 in0.3 mm
01:00 PM 52.9°F11.6°C 36.2°F2.3°C 53% 7.2 mph SSE11.6 kmh SSE 10.7 mph17.2 kmh 30.11 in1019.6 mb 0.00 in0.0 mm 0.00 in0.0 mm 0.01 in0.3 mm
12:45 PM 52.9°F11.6°C 36.2°F2.3°C 53% 6.4 mph SE10.3 kmh SE 11.4 mph18.3 kmh 30.11 in1019.6 mb 0.00 in0.0 mm 0.00 in0.0 mm 0.01 in0.3 mm
12:30 PM 52.9°F11.6°C 35.7°F2.1°C 52% 5.7 mph SE9.2 kmh SE 11.4 mph18.3 kmh 30.12 in1020.0 mb 0.00 in0.0 mm 0.00 in0.0 mm 0.01 in0.3 mm
12:15 PM 52.5°F11.4°C 34.4°F1.3°C 50% 6.0 mph SE9.7 kmh SE 9.8 mph15.8 kmh 30.12 in1020.0 mb 0.00 in0.0 mm 0.00 in0.0 mm 0.01 in0.3 mm
12:00 PM 51.6°F10.9°C 33.6°F0.9°C 50% 6.4 mph SE10.3 kmh SE 11.4 mph18.3 kmh 30.12 in1020.0 mb 0.00 in0.0 mm 0.00 in0.0 mm 0.01 in0.3 mm
11:45 AM 52.2°F11.2°C 33.6°F0.9°C 49% 5.3 mph SE8.5 kmh SE 9.2 mph14.8 kmh 30.12 in1020.0 mb 0.00 in0.0 mm 0.00 in0.0 mm 0.01 in0.3 mm
11:30 AM 51.3°F10.7°C 33.3°F0.7°C 50% 5.5 mph SE8.9 kmh SE 9.2 mph14.8 kmh 30.14 in1020.7 mb 0.00 in0.0 mm 0.00 in0.0 mm 0.01 in0.3 mm
11:15 AM 51.6°F10.9°C 31.5°F-0.3°C 46% 5.0 mph SE8.0 kmh SE 9.2 mph14.8 kmh 30.14 in1020.7 mb 0.00 in0.0 mm 0.00 in0.0 mm 0.01 in0.3 mm
11:00 AM 51.4°F10.8°C 32.4°F0.2°C 48% 4.7 mph SE7.6 kmh SE 7.6 mph12.2 kmh 30.14 in1020.7 mb 0.00 in0.0 mm 0.00 in0.0 mm 0.01 in0.3 mm
10:45 AM 51.3°F10.7°C 31.7°F-0.2°C 47% 4.6 mph SSE7.4 kmh SSE 7.6 mph12.2 kmh 30.14 in1020.7 mb 0.00 in0.0 mm 0.00 in0.0 mm 0.01 in0.3 mm
10:30 AM 51.4°F10.8°C 32.4°F0.2°C 48% 3.9 mph SE6.3 kmh SE 6.9 mph11.1 kmh 30.14 in1020.7 mb 0.00 in0.0 mm 0.00 in0.0 mm 0.01 in0.3 mm
10:15 AM 51.3°F10.7°C 30.7°F-0.7°C 45% 4.0 mph SE6.4 kmh SE 7.6 mph12.2 kmh 30.15 in1021.0 mb 0.00 in0.0 mm 0.00 in0.0 mm 0.01 in0.3 mm
10:00 AM 50.5°F10.3°C 28.3°F-2.1°C 42% 5.3 mph SSE8.5 kmh SSE 8.3 mph13.4 kmh 30.16 in1021.3 mb 0.00 in0.0 mm 0.00 in0.0 mm 0.01 in0.3 mm
09:45 AM 50.5°F10.3°C 28.9°F-1.7°C 43% 4.2 mph SE6.8 kmh SE 8.3 mph13.4 kmh 30.15 in1021.0 mb 0.00 in0.0 mm 0.00 in0.0 mm 0.01 in0.3 mm
09:30 AM 50.4°F10.2°C 28.2°F-2.1°C 42% 4.6 mph SE7.4 kmh SE 10.7 mph17.2 kmh 30.14 in1020.7 mb 0.00 in0.0 mm 0.00 in0.0 mm 0.01 in0.3 mm
09:15 AM 49.5°F9.7°C 32.1°F0.1°C 51% 4.9 mph ESE7.9 kmh ESE 10.7 mph17.2 kmh 30.14 in1020.7 mb 0.00 in0.0 mm 0.00 in0.0 mm 0.01 in0.3 mm
09:00 AM 49.1°F9.5°C 31.3°F-0.4°C 50% 2.7 mph SE4.3 kmh SE 7.6 mph12.2 kmh 30.14 in1020.7 mb 0.00 in0.0 mm 0.00 in0.0 mm 0.01 in0.3 mm
08:45 AM 46.6°F8.1°C 30.8°F-0.7°C 54% 2.5 mph E4.0 kmh E 6.0 mph9.7 kmh 30.14 in1020.7 mb 0.00 in0.0 mm 0.00 in0.0 mm 0.01 in0.3 mm
08:30 AM 46.2°F7.9°C 30.0°F-1.1°C 53% 3.2 mph E5.1 kmh E 6.0 mph9.7 kmh 30.14 in1020.7 mb 0.00 in0.0 mm 0.00 in0.0 mm 0.01 in0.3 mm
08:15 AM 46.2°F7.9°C 30.0°F-1.1°C 53% 3.0 mph SE4.8 kmh SE 6.9 mph11.1 kmh 30.14 in1020.7 mb 0.00 in0.0 mm 0.00 in0.0 mm 0.01 in0.3 mm
08:00 AM 45.9°F7.7°C 30.2°F-1.0°C 54% 3.6 mph ESE5.8 kmh ESE 9.2 mph14.8 kmh 30.13 in1020.3 mb 0.00 in0.0 mm 0.00 in0.0 mm 0.01 in0.3 mm
07:45 AM 45.3°F7.4°C 28.7°F-1.8°C 52% 4.2 mph ESE6.8 kmh ESE 8.3 mph13.4 kmh 30.14 in1020.7 mb 0.00 in0.0 mm 0.00 in0.0 mm 0.01 in0.3 mm
07:30 AM 45.7°F7.6°C 29.1°F-1.6°C 52% 4.2 mph E6.8 kmh E 7.6 mph12.2 kmh 30.13 in1020.3 mb 0.00 in0.0 mm 0.00 in0.0 mm 0.01 in0.3 mm
07:15 AM 45.5°F7.5°C 28.4°F-2.0°C 51% 3.9 mph E6.3 kmh E 7.6 mph12.2 kmh 30.12 in1020.0 mb 0.00 in0.0 mm 0.00 in0.0 mm 0.01 in0.3 mm
07:00 AM 45.3°F7.4°C 28.7°F-1.8°C 52% 2.8 mph E4.5 kmh E 6.0 mph9.7 kmh 30.13 in1020.3 mb 0.00 in0.0 mm 0.00 in0.0 mm 0.01 in0.3 mm
06:45 AM 45.3°F7.4°C 29.2°F-1.6°C 53% 2.5 mph ESE4.0 kmh ESE 6.0 mph9.7 kmh 30.12 in1020.0 mb 0.00 in0.0 mm 0.00 in0.0 mm 0.01 in0.3 mm
06:30 AM 44.8°F7.1°C 30.1°F-1.1°C 56% 2.5 mph E4.0 kmh E 5.4 mph8.7 kmh 30.12 in1020.0 mb 0.00 in0.0 mm 0.00 in0.0 mm 0.01 in0.3 mm
06:15 AM 44.8°F7.1°C 30.9°F-0.6°C 58% 2.7 mph E4.3 kmh E 6.0 mph9.7 kmh 30.12 in1020.0 mb 0.00 in0.0 mm 0.00 in0.0 mm 0.01 in0.3 mm
06:00 AM 45.0°F7.2°C 31.1°F-0.5°C 58% 3.6 mph E5.8 kmh E 7.6 mph12.2 kmh 30.12 in1020.0 mb 0.00 in0.0 mm 0.00 in0.0 mm 0.01 in0.3 mm
05:45 AM 44.6°F7.0°C 31.2°F-0.4°C 59% 3.6 mph E5.8 kmh E 6.0 mph9.7 kmh 30.11 in1019.6 mb 0.00 in0.0 mm 0.00 in0.0 mm 0.01 in0.3 mm
05:30 AM 44.1°F6.7°C 31.5°F-0.3°C 61% 2.3 mph E3.7 kmh E 6.0 mph9.7 kmh 30.11 in1019.6 mb 0.00 in0.0 mm 0.00 in0.0 mm 0.01 in0.3 mm
05:15 AM 45.1°F7.3°C 31.7°F-0.2°C 59% 2.8 mph SE4.5 kmh SE 9.2 mph14.8 kmh 30.11 in1019.6 mb 0.00 in0.0 mm 0.00 in0.0 mm 0.01 in0.3 mm
05:00 AM 44.6°F7.0°C 32.4°F0.2°C 62% 2.7 mph E4.3 kmh E 8.3 mph13.4 kmh 30.11 in1019.6 mb 0.00 in0.0 mm 0.00 in0.0 mm 0.01 in0.3 mm
04:45 AM 44.6°F7.0°C 32.8°F0.4°C 63% 1.8 mph SE2.9 kmh SE 4.5 mph7.2 kmh 30.11 in1019.6 mb 0.00 in0.0 mm 0.00 in0.0 mm 0.01 in0.3 mm
04:30 AM 45.1°F7.3°C 32.5°F0.3°C 61% 2.5 mph E4.0 kmh E 8.3 mph13.4 kmh 30.11 in1019.6 mb 0.00 in0.0 mm 0.00 in0.0 mm 0.01 in0.3 mm
04:15 AM 45.9°F7.7°C 32.8°F0.4°C 60% 5.9 mph SE9.5 kmh SE 13.0 mph20.9 kmh 30.11 in1019.6 mb 0.00 in0.0 mm 0.00 in0.0 mm 0.01 in0.3 mm
04:00 AM 44.8°F7.1°C 32.6°F0.3°C 62% 2.0 mph SE3.2 kmh SE 6.9 mph11.1 kmh 30.12 in1020.0 mb 0.00 in0.0 mm 0.00 in0.0 mm 0.01 in0.3 mm
03:45 AM 45.5°F7.5°C 32.8°F0.4°C 61% 4.6 mph SE7.4 kmh SE 8.3 mph13.4 kmh 30.12 in1020.0 mb 0.01 in0.3 mm 0.00 in0.0 mm 0.01 in0.3 mm
03:30 AM 45.7°F7.6°C 32.6°F0.3°C 60% 6.6 mph SSE10.6 kmh SSE 13.0 mph20.9 kmh 30.12 in1020.0 mb 0.01 in0.3 mm 0.00 in0.0 mm 0.01 in0.3 mm
03:15 AM 45.9°F7.7°C 32.8°F0.4°C 60% 7.2 mph SSE11.6 kmh SSE 14.5 mph23.3 kmh 30.13 in1020.3 mb 0.01 in0.3 mm 0.00 in0.0 mm 0.01 in0.3 mm
03:00 AM 46.2°F7.9°C 34.3°F1.3°C 63% 8.6 mph SSE13.8 kmh SSE 15.9 mph25.6 kmh 30.13 in1020.3 mb 0.01 in0.3 mm 0.01 in0.3 mm 0.01 in0.3 mm
02:45 AM 46.4°F8.0°C 34.5°F1.4°C 63% 8.0 mph SSE12.9 kmh SSE 15.2 mph24.5 kmh 30.13 in1020.3 mb 0.00 in0.0 mm 0.00 in0.0 mm 0.00 in0.0 mm
02:30 AM 46.8°F8.2°C 34.8°F1.6°C 63% 9.4 mph SSE15.1 kmh SSE 19.0 mph30.6 kmh 30.13 in1020.3 mb 0.00 in0.0 mm 0.00 in0.0 mm 0.00 in0.0 mm
02:15 AM 46.6°F8.1°C 35.1°F1.7°C 64% 7.4 mph SSE11.9 kmh SSE 15.9 mph25.6 kmh 30.14 in1020.7 mb 0.00 in0.0 mm 0.00 in0.0 mm 0.00 in0.0 mm
02:00 AM 46.8°F8.2°C 35.2°F1.8°C 64% 7.6 mph S12.2 kmh S 15.2 mph24.5 kmh 30.14 in1020.7 mb 0.00 in0.0 mm 0.00 in0.0 mm 0.00 in0.0 mm
01:45 AM 47.7°F8.7°C 36.5°F2.5°C 65% 9.7 mph SSE15.6 kmh SSE 16.8 mph27.0 kmh 30.13 in1020.3 mb 0.00 in0.0 mm 0.00 in0.0 mm 0.00 in0.0 mm
01:30 AM 47.8°F8.8°C 36.7°F2.6°C 65% 10.7 mph S17.2 kmh S 23.5 mph37.8 kmh 30.13 in1020.3 mb 0.00 in0.0 mm 0.00 in0.0 mm 0.00 in0.0 mm
01:15 AM 47.8°F8.8°C 37.0°F2.8°C 66% 11.1 mph SSE17.9 kmh SSE 20.6 mph33.2 kmh 30.14 in1020.7 mb 0.00 in0.0 mm 0.00 in0.0 mm 0.00 in0.0 mm
01:00 AM 48.2°F9.0°C 37.8°F3.2°C 67% 10.6 mph SE17.1 kmh SE 18.3 mph29.5 kmh 30.13 in1020.3 mb 0.00 in0.0 mm 0.00 in0.0 mm 0.00 in0.0 mm
12:45 AM 48.6°F9.2°C 37.7°F3.2°C 66% 9.2 mph SE14.8 kmh SE 19.7 mph31.7 kmh 30.13 in1020.3 mb 0.00 in0.0 mm 0.00 in0.0 mm 0.00 in0.0 mm
12:30 AM 49.1°F9.5°C 39.4°F4.1°C 69% 10.9 mph SSE17.5 kmh SSE 18.3 mph29.5 kmh 30.14 in1020.7 mb 0.00 in0.0 mm 0.00 in0.0 mm 0.00 in0.0 mm
12:15 AM 49.6°F9.8°C 38.4°F3.6°C 65% 9.2 mph SSE14.8 kmh SSE 16.8 mph27.0 kmh 30.14 in1020.7 mb 0.00 in0.0 mm 0.00 in0.0 mm 0.00 in0.0 mm
12:00 AM 50.5°F10.3°C 37.6°F3.1°C 61% 6.9 mph SE11.1 kmh SE 15.9 mph25.6 kmh 30.14 in1020.7 mb 0.00 in0.0 mm 0.00 in0.0 mm 0.00 in0.0 mm